createdAt,value
2023-05-14T00:00:23.830Z,87.75
2023-05-14T00:01:27.943Z,87.85
2023-05-14T00:02:32.452Z,87.90
2023-05-14T00:03:36.667Z,87.94
2023-05-14T00:04:40.822Z,88.00
2023-05-14T00:05:45.062Z,88.00
2023-05-14T00:06:49.330Z,88.04
2023-05-14T00:07:53.764Z,88.10
2023-05-14T00:08:57.906Z,88.17
2023-05-14T00:10:02.211Z,88.28
2023-05-14T00:11:20.564Z,88.40
2023-05-14T00:12:23.631Z,88.61
2023-05-14T00:13:27.835Z,88.69
2023-05-14T00:14:32.090Z,88.83
2023-05-14T00:15:36.391Z,88.96
2023-05-14T00:16:40.733Z,89.05
2023-05-14T00:17:45.014Z,89.19
2023-05-14T00:18:49.215Z,89.28
2023-05-14T00:19:53.479Z,89.24
2023-05-14T00:20:57.823Z,89.36
2023-05-14T00:22:02.054Z,89.39
2023-05-14T00:23:06.482Z,89.47
2023-05-14T00:24:10.753Z,89.52
2023-05-14T00:25:15.008Z,89.61
2023-05-14T00:26:19.340Z,89.67
2023-05-14T00:27:23.559Z,89.73
2023-05-14T00:28:27.899Z,89.78
2023-05-14T00:29:32.131Z,89.84
2023-05-14T00:30:36.397Z,89.85
2023-05-14T00:31:40.794Z,89.74
2023-05-14T00:32:45.058Z,89.75
2023-05-14T00:33:49.399Z,89.72
2023-05-14T00:34:53.595Z,89.68
2023-05-14T00:35:57.849Z,89.68
2023-05-14T00:37:02.080Z,89.69
2023-05-14T00:38:06.456Z,89.71
2023-05-14T00:39:10.780Z,89.79
2023-05-14T00:40:15.093Z,89.83
2023-05-14T00:41:19.321Z,89.94
2023-05-14T00:42:23.615Z,89.98
2023-05-14T00:43:27.848Z,89.98
2023-05-14T00:44:32.160Z,90.02
2023-05-14T00:45:36.262Z,90.11
2023-05-14T00:46:40.645Z,90.17
2023-05-14T00:47:44.860Z,90.24
2023-05-14T00:48:49.103Z,90.35
2023-05-14T00:49:53.417Z,90.46
2023-05-14T00:50:57.738Z,90.48
2023-05-14T00:52:01.950Z,90.47
2023-05-14T00:53:06.299Z,90.45
2023-05-14T00:54:10.510Z,90.45
2023-05-14T00:55:14.752Z,90.47
2023-05-14T00:56:19.024Z,90.59
2023-05-14T00:57:23.327Z,90.67
2023-05-14T00:58:27.602Z,90.85
2023-05-14T00:59:31.870Z,90.92
2023-05-14T01:00:36.234Z,91.00
2023-05-14T01:01:40.403Z,90.99
2023-05-14T01:02:44.844Z,91.09
2023-05-14T01:03:49.202Z,91.05
2023-05-14T01:04:53.316Z,91.04
2023-05-14T01:05:57.590Z,91.06
2023-05-14T01:07:01.941Z,91.06
2023-05-14T01:08:06.197Z,91.08
2023-05-14T01:09:10.454Z,91.15
2023-05-14T01:10:14.654Z,91.28
2023-05-14T01:11:18.938Z,91.34
2023-05-14T01:12:23.104Z,91.38
2023-05-14T01:13:27.511Z,91.40
2023-05-14T01:14:31.722Z,91.53
2023-05-14T01:15:36.062Z,91.52
2023-05-14T01:16:40.405Z,91.58
2023-05-14T01:19:11.780Z,91.63
2023-05-14T01:20:15.959Z,91.81
2023-05-14T01:21:20.233Z,91.80
2023-05-14T01:22:24.455Z,91.80
2023-05-14T01:23:28.738Z,91.72
2023-05-14T01:24:33.105Z,91.85
2023-05-14T01:25:37.385Z,91.97
2023-05-14T01:26:41.691Z,92.12
2023-05-14T01:27:45.978Z,92.21
2023-05-14T01:28:50.197Z,92.30
2023-05-14T01:29:54.566Z,92.41
2023-05-14T01:30:58.845Z,92.55
2023-05-14T01:32:03.247Z,92.69
2023-05-14T01:33:07.473Z,92.75
2023-05-14T01:34:11.762Z,92.87
2023-05-14T01:35:16.020Z,93.01
2023-05-14T01:36:20.362Z,93.18
2023-05-14T01:37:24.594Z,93.30
2023-05-14T01:38:28.838Z,93.45
2023-05-14T01:39:33.176Z,93.57
2023-05-14T01:40:37.519Z,93.76
2023-05-14T01:41:41.822Z,93.92
2023-05-14T01:42:46.068Z,94.02
2023-05-14T01:43:50.295Z,94.12
2023-05-14T01:44:54.631Z,94.19
2023-05-14T01:45:58.884Z,94.31
2023-05-14T01:47:03.098Z,94.32
2023-05-14T01:48:07.446Z,94.38
2023-05-14T01:49:11.709Z,94.25
2023-05-14T01:50:15.981Z,94.27
2023-05-14T01:51:20.311Z,94.23
2023-05-14T01:52:24.542Z,94.19
2023-05-14T01:53:28.851Z,94.17
2023-05-14T01:54:33.071Z,94.17
2023-05-14T01:55:37.354Z,94.18
2023-05-14T01:56:41.608Z,94.17
2023-05-14T01:57:48.955Z,94.17
2023-05-14T01:58:52.208Z,94.22
2023-05-14T01:59:56.499Z,94.30
2023-05-14T02:01:00.793Z,94.41
2023-05-14T02:02:05.058Z,94.57
2023-05-14T02:03:09.417Z,94.74
2023-05-14T02:04:13.689Z,94.91
2023-05-14T02:05:17.970Z,95.08
2023-05-14T02:06:22.262Z,95.25
2023-05-14T02:07:26.491Z,95.42
2023-05-14T02:08:30.770Z,95.61
2023-05-14T02:09:35.098Z,95.77
2023-05-14T02:10:39.408Z,95.90
2023-05-14T02:11:43.630Z,95.99
2023-05-14T02:12:47.926Z,96.07
2023-05-14T02:13:52.266Z,96.12
2023-05-14T02:14:56.538Z,96.12
2023-05-14T02:16:00.850Z,96.12
2023-05-14T02:17:05.061Z,96.15
2023-05-14T02:18:09.488Z,96.21
2023-05-14T02:19:13.697Z,96.22
2023-05-14T02:20:17.921Z,96.22
2023-05-14T02:21:22.159Z,96.22
2023-05-14T02:22:26.510Z,96.26
2023-05-14T02:23:40.508Z,96.28
2023-05-14T02:24:35.117Z,96.26
2023-05-14T02:25:39.274Z,96.33
2023-05-14T02:26:43.576Z,96.25
2023-05-14T02:27:47.875Z,96.26
2023-05-14T02:28:52.185Z,96.34
2023-05-14T02:29:56.502Z,96.34
2023-05-14T02:31:00.856Z,96.38
2023-05-14T02:32:05.066Z,96.41
2023-05-14T02:33:15.440Z,96.44
2023-05-14T02:34:18.182Z,96.51
2023-05-14T02:35:22.401Z,96.59
2023-05-14T02:36:26.633Z,96.67
2023-05-14T02:37:30.911Z,96.68
2023-05-14T02:38:35.178Z,96.65
2023-05-14T02:39:39.454Z,96.57
2023-05-14T02:40:43.646Z,96.41
2023-05-14T02:41:47.892Z,96.48
2023-05-14T02:42:52.261Z,96.35
2023-05-14T02:43:56.464Z,96.32
2023-05-14T02:45:00.734Z,96.33
2023-05-14T02:46:05.130Z,96.37
2023-05-14T02:47:09.475Z,96.41
2023-05-14T02:48:13.667Z,96.46
2023-05-14T02:49:17.831Z,96.53
2023-05-14T02:50:22.332Z,96.60
2023-05-14T02:51:26.360Z,96.65
2023-05-14T02:52:30.650Z,96.72
2023-05-14T02:53:34.865Z,96.75
2023-05-14T02:54:39.107Z,96.66
2023-05-14T02:55:43.388Z,96.73
2023-05-14T02:56:47.686Z,96.79
2023-05-14T02:57:52.052Z,96.84
2023-05-14T02:58:56.281Z,96.89
2023-05-14T03:00:00.488Z,96.97
2023-05-14T03:01:04.862Z,97.06
2023-05-14T03:02:09.039Z,97.16
2023-05-14T03:03:16.388Z,97.25
2023-05-14T03:04:19.755Z,97.38
2023-05-14T03:05:24.122Z,97.49
2023-05-14T03:06:28.360Z,97.61
2023-05-14T03:07:32.653Z,97.67
2023-05-14T03:08:36.898Z,97.75
2023-05-14T03:09:41.179Z,97.74
2023-05-14T03:10:45.415Z,97.73
2023-05-14T03:11:49.758Z,97.71
2023-05-14T03:12:54.073Z,97.67
2023-05-14T03:13:58.272Z,97.71
2023-05-14T03:15:02.546Z,97.75
2023-05-14T03:16:06.792Z,97.78
2023-05-14T03:17:11.191Z,97.89
2023-05-14T03:18:15.317Z,98.04
2023-05-14T03:19:19.536Z,98.02
2023-05-14T03:20:24.090Z,97.96
2023-05-14T03:21:28.186Z,97.89
2023-05-14T03:22:32.492Z,97.78
2023-05-14T03:23:36.719Z,97.70
2023-05-14T03:24:41.037Z,97.62
2023-05-14T03:25:45.215Z,97.56
2023-05-14T03:26:49.594Z,97.50
2023-05-14T03:27:53.966Z,97.41
2023-05-14T03:28:58.223Z,97.30
2023-05-14T03:30:02.440Z,97.40
2023-05-14T03:31:06.696Z,97.47
2023-05-14T03:32:10.882Z,97.52
2023-05-14T03:33:15.170Z,97.57
2023-05-14T03:34:19.389Z,97.66
2023-05-14T03:35:23.663Z,97.70
2023-05-14T03:36:28.007Z,97.74
2023-05-14T03:37:32.300Z,97.75
2023-05-14T03:38:36.509Z,97.75
2023-05-14T03:39:40.768Z,97.72
2023-05-14T03:40:45.095Z,97.68
2023-05-14T03:41:49.312Z,97.62
2023-05-14T03:42:53.490Z,97.51
2023-05-14T03:43:57.831Z,97.38
2023-05-14T03:45:16.138Z,97.22
2023-05-14T03:46:19.299Z,97.05
2023-05-14T03:47:23.496Z,96.86
2023-05-14T03:48:27.939Z,96.67
2023-05-14T03:49:32.021Z,96.48
2023-05-14T03:50:36.316Z,96.28
2023-05-14T03:51:40.659Z,96.12
2023-05-14T03:52:44.973Z,95.98
2023-05-14T03:53:49.271Z,95.92
2023-05-14T03:54:53.550Z,95.77
2023-05-14T03:55:57.794Z,95.64
2023-05-14T03:57:02.149Z,95.57
2023-05-14T03:58:06.470Z,95.50
2023-05-14T03:59:10.804Z,95.43
2023-05-14T04:00:18.204Z,95.37
2023-05-14T04:01:21.551Z,95.36
2023-05-14T04:02:25.912Z,95.26
2023-05-14T04:03:30.257Z,95.22
2023-05-14T04:04:34.460Z,95.20
2023-05-14T04:05:38.602Z,95.20
2023-05-14T04:06:42.850Z,95.20
2023-05-14T04:07:47.136Z,95.19
2023-05-14T04:08:54.428Z,95.22
2023-05-14T04:09:57.786Z,95.25
2023-05-14T04:11:02.059Z,95.23
2023-05-14T04:12:06.308Z,95.23
2023-05-14T04:13:10.594Z,95.26
2023-05-14T04:14:15.047Z,95.18
2023-05-14T04:15:19.201Z,95.26
2023-05-14T04:16:23.504Z,95.30
2023-05-14T04:17:30.857Z,95.34
2023-05-14T04:18:34.404Z,95.35
2023-05-14T04:19:38.585Z,95.42
2023-05-14T04:20:42.915Z,95.49
2023-05-14T04:21:47.221Z,95.49
2023-05-14T04:22:51.449Z,95.68
2023-05-14T04:23:55.783Z,95.77
2023-05-14T04:25:00.107Z,95.92
2023-05-14T04:26:04.338Z,96.10
2023-05-14T04:27:08.621Z,96.31
2023-05-14T04:28:12.907Z,96.39
2023-05-14T04:29:17.180Z,96.52
2023-05-14T04:30:21.754Z,96.60
2023-05-14T04:31:25.860Z,96.65
2023-05-14T04:32:30.081Z,96.80
2023-05-14T04:33:34.449Z,96.94
2023-05-14T04:34:38.731Z,97.10
2023-05-14T04:35:43.062Z,97.09
2023-05-14T04:36:47.385Z,97.19
2023-05-14T04:37:51.634Z,97.34
2023-05-14T04:38:56.045Z,97.39
2023-05-14T04:40:00.296Z,97.43
2023-05-14T04:41:04.513Z,97.49
2023-05-14T04:42:08.880Z,97.79
2023-05-14T04:43:13.087Z,98.12
2023-05-14T04:44:17.460Z,98.45
2023-05-14T04:45:21.674Z,98.67
2023-05-14T04:46:26.054Z,98.78
2023-05-14T04:47:30.308Z,98.83
2023-05-14T04:48:34.730Z,98.85
2023-05-14T04:49:39.021Z,98.85
2023-05-14T04:50:43.354Z,98.89
2023-05-14T04:51:47.585Z,98.88
2023-05-14T04:52:51.979Z,98.90
2023-05-14T04:53:56.185Z,98.98
2023-05-14T04:55:00.493Z,99.13
2023-05-14T04:56:04.799Z,99.17
2023-05-14T04:57:09.154Z,99.16
2023-05-14T04:58:13.390Z,99.18
2023-05-14T04:59:17.668Z,99.36
2023-05-14T05:00:22.462Z,99.51
2023-05-14T05:01:26.345Z,99.51
2023-05-14T05:02:30.610Z,99.46
2023-05-14T05:03:34.874Z,99.51
2023-05-14T05:04:39.167Z,99.37
2023-05-14T05:05:43.530Z,99.25
2023-05-14T05:06:47.760Z,99.14
2023-05-14T05:07:52.154Z,99.07
2023-05-14T05:08:56.386Z,99.05
2023-05-14T05:10:00.810Z,99.01
2023-05-14T05:11:05.002Z,98.94
2023-05-14T05:12:09.304Z,98.81
2023-05-14T05:13:13.586Z,98.50
2023-05-14T05:14:17.903Z,98.37
2023-05-14T05:15:23.294Z,98.16
2023-05-14T05:16:26.642Z,97.88
2023-05-14T05:17:30.903Z,97.75
2023-05-14T05:18:35.338Z,97.54
2023-05-14T05:19:43.749Z,97.46
2023-05-14T05:20:43.832Z,97.29
2023-05-14T05:21:48.243Z,97.09
2023-05-14T05:22:52.514Z,96.89
2023-05-14T05:23:56.869Z,96.73
2023-05-14T05:25:01.177Z,96.64
2023-05-14T05:26:05.446Z,96.47
2023-05-14T05:27:09.741Z,96.36
2023-05-14T05:28:14.117Z,96.28
2023-05-14T05:29:18.465Z,96.23
2023-05-14T05:30:22.981Z,96.17
2023-05-14T05:31:27.141Z,96.09
2023-05-14T05:32:31.464Z,96.06
2023-05-14T05:33:35.824Z,95.93
2023-05-14T05:34:40.163Z,95.78
2023-05-14T05:35:44.393Z,95.58
2023-05-14T05:36:48.704Z,95.46
2023-05-14T05:37:53.020Z,95.33
2023-05-14T05:38:57.342Z,95.21
2023-05-14T05:40:01.662Z,95.06
2023-05-14T05:41:05.943Z,94.83
2023-05-14T05:42:10.338Z,94.60
2023-05-14T05:43:14.674Z,94.44
2023-05-14T05:44:19.007Z,94.36
2023-05-14T05:45:23.277Z,94.29
2023-05-14T05:46:27.724Z,94.14
2023-05-14T05:47:32.051Z,94.01
2023-05-14T05:48:36.334Z,93.69
2023-05-14T05:49:40.682Z,93.32
2023-05-14T05:50:44.976Z,92.91
2023-05-14T05:51:49.359Z,92.51
2023-05-14T05:52:53.702Z,92.17
2023-05-14T05:53:57.982Z,91.88
2023-05-14T05:55:02.283Z,91.61
2023-05-14T05:56:06.592Z,91.43
2023-05-14T05:57:16.942Z,90.75
2023-05-14T05:58:19.993Z,90.29
2023-05-14T05:59:24.288Z,89.91
2023-05-14T06:00:31.665Z,89.84
2023-05-14T06:01:35.283Z,89.94
2023-05-14T06:02:39.565Z,90.11
2023-05-14T06:03:44.859Z,90.23
2023-05-14T06:04:48.171Z,90.02
2023-05-14T06:05:52.527Z,89.77
2023-05-14T06:06:56.828Z,89.63
2023-05-14T06:08:01.037Z,89.59
2023-05-14T06:09:05.339Z,89.62
2023-05-14T06:10:09.686Z,89.86
2023-05-14T06:11:14.091Z,90.16
2023-05-14T06:12:18.439Z,90.37
2023-05-14T06:13:22.708Z,90.51
2023-05-14T06:14:27.037Z,90.61
2023-05-14T06:15:31.400Z,90.64
2023-05-14T06:16:35.820Z,90.50
2023-05-14T06:17:40.288Z,90.17
2023-05-14T06:18:44.605Z,89.93
2023-05-14T06:19:48.888Z,89.78
2023-05-14T06:20:53.196Z,89.47
2023-05-14T06:21:57.627Z,89.17
2023-05-14T06:23:01.973Z,88.97
2023-05-14T06:24:06.385Z,88.96
2023-05-14T06:25:10.739Z,88.82
2023-05-14T06:26:15.048Z,88.70
2023-05-14T06:27:19.383Z,88.50
2023-05-14T06:28:23.751Z,87.89
2023-05-14T06:29:28.150Z,87.52
2023-05-14T06:30:32.528Z,87.25
2023-05-14T06:31:36.803Z,87.16
2023-05-14T06:32:41.265Z,86.98
2023-05-14T06:33:45.500Z,86.56
2023-05-14T06:34:49.968Z,86.38
2023-05-14T06:35:54.312Z,86.00
2023-05-14T06:36:58.725Z,85.80
2023-05-14T06:38:03.027Z,85.85
2023-05-14T06:39:07.357Z,85.86
2023-05-14T06:40:11.767Z,85.88
2023-05-14T06:41:16.181Z,85.76
2023-05-14T06:42:20.543Z,85.25
2023-05-14T06:43:39.058Z,85.26
2023-05-14T06:44:42.464Z,85.42
2023-05-14T06:45:46.712Z,85.44
2023-05-14T06:46:51.146Z,85.13
2023-05-14T06:47:55.594Z,84.47
2023-05-14T06:48:59.930Z,84.05
2023-05-14T06:50:04.313Z,83.99
2023-05-14T06:51:08.736Z,83.37
2023-05-14T06:52:13.017Z,81.45
2023-05-14T06:53:17.512Z,80.11
2023-05-14T06:54:21.992Z,80.03
2023-05-14T06:55:26.456Z,80.58
2023-05-14T06:56:30.825Z,80.47
2023-05-14T06:57:35.157Z,78.77
2023-05-14T06:58:39.570Z,78.17
2023-05-14T06:59:43.877Z,77.42
2023-05-14T07:00:48.197Z,77.26
2023-05-14T07:01:52.630Z,76.95
2023-05-14T07:02:57.019Z,77.55
2023-05-14T07:04:01.464Z,77.05
2023-05-14T07:05:05.737Z,76.70
2023-05-14T07:06:12.532Z,76.71
2023-05-14T07:07:14.439Z,76.72
2023-05-14T07:08:18.871Z,77.42
2023-05-14T07:09:23.199Z,76.42
2023-05-14T07:10:27.694Z,76.95
2023-05-14T07:11:31.979Z,75.64
2023-05-14T07:12:36.450Z,74.58
2023-05-14T07:13:43.866Z,74.44
2023-05-14T07:14:47.308Z,74.53
2023-05-14T07:15:51.811Z,74.42
2023-05-14T07:16:56.142Z,74.52
2023-05-14T07:18:00.492Z,74.58
2023-05-14T07:19:04.979Z,73.56
2023-05-14T07:20:09.329Z,72.43
2023-05-14T07:21:13.704Z,72.67
2023-05-14T07:22:18.082Z,72.27
2023-05-14T07:23:22.524Z,72.21
2023-05-14T07:24:26.834Z,70.84
2023-05-14T07:25:34.159Z,70.68
2023-05-14T07:26:37.666Z,71.95
2023-05-14T07:27:42.079Z,72.58
2023-05-14T07:28:46.444Z,73.31
2023-05-14T07:29:50.773Z,73.51
2023-05-14T07:30:55.223Z,73.78
2023-05-14T07:31:59.602Z,73.95
2023-05-14T07:33:03.982Z,73.82
2023-05-14T07:34:08.248Z,73.84
2023-05-14T07:35:12.721Z,73.30
2023-05-14T07:36:17.002Z,73.66
2023-05-14T07:37:23.641Z,73.64
2023-05-14T07:38:31.713Z,73.66
2023-05-14T07:39:34.831Z,73.71
2023-05-14T07:40:39.080Z,73.42
2023-05-14T07:41:43.486Z,73.85
2023-05-14T07:42:47.864Z,74.14
2023-05-14T07:43:52.339Z,74.15
2023-05-14T07:44:56.715Z,74.20
2023-05-14T07:46:04.154Z,74.25
2023-05-14T07:47:07.736Z,72.46
2023-05-14T07:48:12.438Z,72.66
2023-05-14T07:49:16.354Z,71.53
2023-05-14T07:50:20.887Z,71.14
2023-05-14T07:51:25.130Z,70.41
2023-05-14T07:52:29.602Z,70.40
2023-05-14T07:53:34.049Z,70.60
2023-05-14T07:54:38.507Z,70.14
2023-05-14T07:55:42.736Z,67.01
2023-05-14T07:56:47.136Z,68.17
2023-05-14T07:57:51.594Z,64.29
2023-05-14T07:58:55.998Z,63.96
2023-05-14T08:00:00.526Z,64.20
2023-05-14T08:01:04.889Z,65.67
2023-05-14T08:02:09.264Z,66.36
2023-05-14T08:03:13.819Z,63.70
2023-05-14T08:04:18.200Z,61.33
2023-05-14T08:05:22.517Z,62.48
2023-05-14T08:06:26.943Z,63.52
2023-05-14T08:07:31.366Z,62.60
2023-05-14T08:08:35.816Z,61.12
2023-05-14T08:09:40.265Z,59.12
2023-05-14T08:10:44.650Z,59.10
2023-05-14T08:11:48.978Z,57.51
2023-05-14T08:12:56.442Z,57.15
2023-05-14T08:14:00.060Z,59.67
2023-05-14T08:15:04.477Z,58.77
2023-05-14T08:16:08.832Z,58.22
2023-05-14T08:17:13.244Z,58.57
2023-05-14T08:18:17.591Z,60.05
2023-05-14T08:20:48.899Z,58.43
2023-05-14T08:21:53.214Z,58.03
2023-05-14T08:22:57.544Z,59.02
2023-05-14T08:24:01.917Z,59.45
2023-05-14T08:25:06.346Z,57.43
2023-05-14T08:29:12.857Z,58.97
2023-05-14T08:30:14.032Z,59.40
2023-05-14T08:31:18.385Z,59.60
2023-05-14T08:32:24.057Z,59.91
2023-05-14T08:33:27.243Z,60.22
2023-05-14T08:34:31.666Z,57.76
2023-05-14T08:35:36.124Z,58.19
2023-05-14T08:36:40.522Z,58.36
2023-05-14T08:37:59.025Z,57.51
2023-05-14T08:39:02.378Z,58.34
2023-05-14T08:40:06.686Z,59.08
2023-05-14T08:41:11.048Z,59.05
2023-05-14T08:42:15.526Z,59.13
2023-05-14T08:43:19.885Z,58.81
2023-05-14T08:44:24.337Z,58.95
2023-05-14T08:45:28.741Z,59.36
2023-05-14T08:46:33.185Z,58.86
2023-05-14T08:47:37.636Z,58.86
2023-05-14T08:48:42.019Z,57.75
2023-05-14T08:49:46.423Z,58.05
2023-05-14T08:50:50.796Z,55.97
2023-05-14T08:51:55.269Z,54.27
2023-05-14T08:52:59.730Z,53.75
2023-05-14T08:54:04.121Z,54.05
2023-05-14T08:55:08.514Z,55.64
2023-05-14T08:56:13.007Z,55.55
2023-05-14T08:57:17.385Z,56.44
2023-05-14T08:58:21.824Z,57.21
2023-05-14T08:59:26.275Z,57.63
2023-05-14T09:00:44.745Z,57.32
2023-05-14T09:01:48.081Z,58.05
2023-05-14T09:02:52.397Z,58.20
2023-05-14T09:03:56.768Z,58.57
2023-05-14T09:05:01.186Z,58.41
2023-05-14T09:06:05.500Z,57.90
2023-05-14T09:07:09.963Z,58.50
2023-05-14T09:08:14.295Z,59.36
2023-05-14T09:09:18.697Z,59.20
2023-05-14T09:10:23.498Z,58.64
2023-05-14T09:11:27.508Z,55.96
2023-05-14T09:12:46.034Z,56.91
2023-05-14T09:13:49.544Z,57.65
2023-05-14T09:14:53.995Z,52.64
2023-05-14T09:15:58.344Z,54.16
2023-05-14T09:17:02.769Z,55.63
2023-05-14T09:18:07.334Z,56.20
2023-05-14T09:19:17.825Z,56.21
2023-05-14T09:20:20.819Z,56.81
2023-05-14T09:21:25.232Z,56.41
2023-05-14T09:22:29.579Z,55.63
2023-05-14T09:23:33.973Z,56.15
2023-05-14T09:24:38.379Z,56.49
2023-05-14T09:25:42.921Z,56.02
2023-05-14T09:26:47.357Z,56.45
2023-05-14T09:28:05.806Z,55.34
2023-05-14T09:29:23.260Z,53.48
2023-05-14T09:30:40.683Z,55.57
2023-05-14T09:31:44.134Z,55.33
2023-05-14T09:32:48.376Z,55.74
2023-05-14T09:33:52.863Z,55.72
2023-05-14T09:34:57.269Z,52.39
2023-05-14T09:36:01.760Z,52.20
2023-05-14T09:37:06.182Z,54.33
2023-05-14T09:38:10.631Z,54.04
2023-05-14T09:39:15.069Z,54.77
2023-05-14T09:40:22.673Z,53.62
2023-05-14T09:41:26.065Z,49.80
2023-05-14T09:42:30.390Z,49.37
2023-05-14T09:43:34.798Z,51.32
2023-05-14T09:44:39.274Z,49.57
2023-05-14T09:45:57.807Z,50.20
2023-05-14T09:47:01.183Z,51.87
2023-05-14T09:48:05.584Z,49.16
2023-05-14T09:49:09.824Z,50.34
2023-05-14T09:50:14.435Z,51.83
2023-05-14T09:51:18.797Z,52.70
2023-05-14T09:52:23.379Z,52.42
2023-05-14T09:53:27.679Z,52.23
2023-05-14T09:54:32.084Z,52.52
2023-05-14T09:55:36.548Z,50.92
2023-05-14T09:56:55.837Z,51.66
2023-05-14T09:57:58.320Z,51.52
2023-05-14T09:59:02.635Z,51.63
2023-05-14T10:00:07.093Z,50.39
2023-05-14T10:01:11.584Z,50.59
2023-05-14T10:02:15.945Z,50.83
2023-05-14T10:03:20.441Z,50.65
2023-05-14T10:04:24.814Z,50.07
2023-05-14T10:05:29.145Z,50.35
2023-05-14T10:06:33.630Z,50.99
2023-05-14T10:07:38.109Z,50.02
2023-05-14T10:08:42.581Z,51.16
2023-05-14T10:09:47.030Z,48.64
2023-05-14T10:10:57.484Z,48.90
2023-05-14T10:12:00.626Z,48.60
2023-05-14T10:13:04.952Z,46.55
2023-05-14T10:14:09.434Z,46.71
2023-05-14T10:15:13.893Z,46.02
2023-05-14T10:16:18.319Z,46.04
2023-05-14T10:17:22.700Z,46.68
2023-05-14T10:18:27.158Z,47.63
2023-05-14T10:19:45.610Z,47.56
2023-05-14T10:20:49.135Z,47.56
2023-05-14T10:21:53.427Z,46.65
2023-05-14T10:22:57.828Z,46.27
2023-05-14T10:24:16.347Z,45.68
2023-05-14T10:25:19.725Z,45.72
2023-05-14T10:26:30.130Z,44.46
2023-05-14T10:27:33.113Z,44.57
2023-05-14T10:28:37.557Z,46.34
2023-05-14T10:29:41.991Z,45.41
2023-05-14T10:31:00.504Z,45.08
2023-05-14T10:32:03.587Z,45.76
2023-05-14T10:33:07.989Z,46.46
2023-05-14T10:34:12.364Z,45.14
2023-05-14T10:35:16.701Z,45.19
2023-05-14T10:36:21.167Z,45.47
2023-05-14T10:37:25.710Z,44.74
2023-05-14T10:38:30.121Z,45.79
2023-05-14T10:39:34.551Z,45.70
2023-05-14T10:40:38.999Z,45.59
2023-05-14T10:41:43.414Z,46.12
2023-05-14T10:42:47.997Z,45.92
2023-05-14T10:43:52.293Z,46.23
2023-05-14T10:44:56.722Z,46.29
2023-05-14T10:46:01.188Z,45.55
2023-05-14T10:47:05.886Z,46.35
2023-05-14T10:48:10.007Z,46.64
2023-05-14T10:49:14.433Z,47.36
2023-05-14T10:50:18.889Z,47.86
2023-05-14T10:51:23.398Z,47.73
2023-05-14T10:52:27.779Z,45.62
2023-05-14T10:53:32.152Z,45.69
2023-05-14T10:54:50.707Z,46.20
2023-05-14T10:55:54.181Z,46.02
2023-05-14T10:56:58.606Z,46.52
2023-05-14T10:58:03.046Z,46.32
2023-05-14T10:59:07.437Z,46.29
2023-05-14T11:00:11.912Z,46.08
2023-05-14T11:01:19.344Z,46.47
2023-05-14T11:02:37.004Z,45.72
2023-05-14T11:03:40.352Z,46.05
2023-05-14T11:04:44.588Z,46.44
2023-05-14T11:05:49.097Z,47.63
2023-05-14T11:06:53.477Z,47.03
2023-05-14T11:07:57.874Z,46.59
2023-05-14T11:09:02.254Z,46.88
2023-05-14T11:10:06.768Z,47.39
2023-05-14T11:11:11.123Z,46.88
2023-05-14T11:12:15.509Z,47.15
2023-05-14T11:13:23.016Z,47.00
2023-05-14T11:14:26.514Z,47.31
2023-05-14T11:15:30.981Z,47.48
2023-05-14T11:16:35.460Z,47.30
2023-05-14T11:17:39.879Z,48.20
2023-05-14T11:18:44.354Z,47.81
2023-05-14T11:19:51.089Z,47.71
2023-05-14T11:20:53.072Z,48.39
2023-05-14T11:21:57.452Z,48.69
2023-05-14T11:23:01.913Z,48.19
2023-05-14T11:24:06.355Z,48.58
2023-05-14T11:25:10.700Z,48.97
2023-05-14T11:26:29.241Z,49.91
2023-05-14T11:27:33.542Z,49.42
2023-05-14T11:28:37.545Z,48.92
2023-05-14T11:29:42.011Z,49.11
2023-05-14T11:30:46.406Z,48.92
2023-05-14T11:31:50.814Z,49.27
2023-05-14T11:32:55.172Z,49.50
2023-05-14T11:33:59.605Z,50.07
2023-05-14T11:35:03.948Z,48.37
2023-05-14T11:36:08.564Z,48.76
2023-05-14T11:37:12.974Z,49.25
2023-05-14T11:38:17.328Z,49.71
2023-05-14T11:39:21.809Z,50.07
2023-05-14T11:40:26.404Z,49.85
2023-05-14T11:41:30.686Z,49.23
2023-05-14T11:42:35.146Z,49.30
2023-05-14T11:43:39.561Z,48.98
2023-05-14T11:44:43.912Z,49.60
2023-05-14T11:45:48.325Z,50.30
2023-05-14T11:46:52.681Z,50.48
2023-05-14T11:47:57.081Z,50.66
2023-05-14T11:49:15.527Z,50.82
2023-05-14T11:50:18.832Z,51.19
2023-05-14T11:51:23.284Z,51.76
2023-05-14T11:52:27.577Z,51.86
2023-05-14T11:53:32.035Z,51.85
2023-05-14T11:54:36.408Z,51.75
2023-05-14T11:55:40.785Z,51.80
2023-05-14T11:56:45.125Z,51.29
2023-05-14T11:57:49.669Z,50.65
2023-05-14T11:58:53.983Z,51.08
2023-05-14T11:59:58.357Z,52.13
2023-05-14T12:01:02.720Z,52.56
2023-05-14T12:02:07.252Z,52.62
2023-05-14T12:03:11.858Z,55.03
2023-05-14T12:04:16.164Z,56.74
2023-05-14T12:05:20.503Z,58.54
2023-05-14T12:06:24.918Z,59.97
2023-05-14T12:07:29.307Z,59.97
2023-05-14T12:08:33.798Z,58.37
2023-05-14T12:09:38.184Z,57.66
2023-05-14T12:10:42.648Z,58.13
2023-05-14T12:11:46.988Z,57.37
2023-05-14T12:12:51.460Z,57.70
2023-05-14T12:13:55.763Z,58.18
2023-05-14T12:15:00.197Z,58.54
2023-05-14T12:16:04.600Z,58.30
2023-05-14T12:17:15.077Z,57.90
2023-05-14T12:18:24.744Z,57.83
2023-05-14T12:19:22.619Z,58.55
2023-05-14T12:20:26.901Z,58.35
2023-05-14T12:21:31.263Z,58.17
2023-05-14T12:22:37.068Z,58.02
2023-05-14T12:23:40.249Z,58.02
2023-05-14T12:24:44.679Z,57.37
2023-05-14T12:25:49.000Z,57.01
2023-05-14T12:27:07.639Z,56.79
2023-05-14T12:28:10.512Z,56.57
2023-05-14T12:29:14.853Z,56.61
2023-05-14T12:30:21.261Z,56.67
2023-05-14T12:31:23.648Z,56.77
2023-05-14T12:32:34.141Z,56.90
2023-05-14T12:33:37.182Z,57.12
2023-05-14T12:34:41.461Z,57.14
2023-05-14T12:35:45.847Z,57.27
2023-05-14T12:36:50.265Z,57.37
2023-05-14T12:37:54.558Z,57.42
2023-05-14T12:39:05.020Z,57.59
2023-05-14T12:40:08.110Z,57.57
2023-05-14T12:41:12.523Z,57.77
2023-05-14T12:42:16.900Z,57.76
2023-05-14T12:43:21.285Z,57.93
2023-05-14T12:44:25.655Z,58.13
2023-05-14T12:45:30.138Z,58.23
2023-05-14T12:46:34.666Z,58.94
2023-05-14T12:47:38.893Z,58.77
2023-05-14T12:48:43.364Z,58.97
2023-05-14T12:49:47.712Z,59.08
2023-05-14T12:50:52.096Z,59.12
2023-05-14T12:52:04.476Z,59.13
2023-05-14T12:53:00.995Z,59.09
2023-05-14T12:54:05.435Z,59.09
2023-05-14T12:55:11.994Z,59.06
2023-05-14T12:56:14.155Z,58.96
2023-05-14T12:57:18.569Z,59.02
2023-05-14T12:58:22.935Z,59.52
2023-05-14T12:59:27.422Z,59.62
2023-05-14T13:00:31.792Z,59.65
2023-05-14T13:01:36.217Z,59.80
2023-05-14T13:02:42.240Z,59.58
2023-05-14T13:03:59.136Z,59.39
2023-05-14T13:05:02.332Z,59.21
2023-05-14T13:06:06.880Z,58.86
2023-05-14T13:07:11.120Z,58.99
2023-05-14T13:08:15.579Z,58.97
2023-05-14T13:09:19.979Z,58.93
2023-05-14T13:10:24.878Z,58.90
2023-05-14T13:11:28.683Z,58.82
2023-05-14T13:12:39.329Z,58.81
2023-05-14T13:13:42.329Z,58.88
2023-05-14T13:14:46.707Z,58.85
2023-05-14T13:15:51.084Z,58.94
2023-05-14T13:16:55.448Z,59.00
2023-05-14T13:17:59.875Z,59.00
2023-05-14T13:19:04.325Z,59.00
2023-05-14T13:20:08.680Z,59.04
2023-05-14T13:21:13.076Z,59.06
2023-05-14T13:22:17.490Z,59.26
2023-05-14T13:23:21.851Z,59.31
2023-05-14T13:24:26.320Z,59.81
2023-05-14T13:25:30.849Z,59.60
2023-05-14T13:26:35.267Z,59.25
2023-05-14T13:27:39.713Z,59.05
2023-05-14T13:28:44.083Z,58.93
2023-05-14T13:29:48.576Z,58.89
2023-05-14T13:30:52.969Z,58.75
2023-05-14T13:31:57.353Z,58.62
2023-05-14T13:33:01.819Z,58.54
2023-05-14T13:34:06.144Z,58.43
2023-05-14T13:35:10.616Z,58.06
2023-05-14T13:36:15.072Z,57.84
2023-05-14T13:37:19.455Z,58.02
2023-05-14T13:38:23.966Z,58.06
2023-05-14T13:39:28.338Z,57.96
2023-05-14T13:40:32.833Z,57.92
2023-05-14T13:41:37.269Z,57.88
2023-05-14T13:42:41.616Z,57.57
2023-05-14T13:43:46.081Z,56.62
2023-05-14T13:44:50.568Z,55.98
2023-05-14T13:45:54.921Z,56.43
2023-05-14T13:46:59.367Z,56.46
2023-05-14T13:48:04.071Z,56.72
2023-05-14T13:49:08.276Z,56.99
2023-05-14T13:50:12.639Z,56.94
2023-05-14T13:51:17.140Z,56.83
2023-05-14T13:52:21.464Z,56.87
2023-05-14T13:53:25.933Z,57.13
2023-05-14T13:54:30.281Z,56.95
2023-05-14T13:55:34.725Z,57.13
2023-05-14T13:56:42.092Z,57.00
2023-05-14T13:57:45.635Z,57.15
2023-05-14T13:58:50.098Z,57.19
2023-05-14T13:59:54.511Z,57.13